Time;durP1;ratioP1;P1;durP2;ratioP2;P2;SDS_P1;SDS_P2;PMS_P1;PMS_P2;Temp;Humidity;BMP_temperature;BMP_pressure;BME280_temperature;BME280_humidity;BME280_pressure;Samples;Min_cycle;Max_cycle;Signal;HPM_P1;HPM_P2
2022/10/25 00:00:37;;;;;;;10.50;1.45;;;;;;;11.83;100.00;100396.44;5027486;28;20041;-74
2022/10/25 00:03:03;;;;;;;13.43;2.28;;;;;;;11.82;100.00;100397.59;5031877;28;20033;-74
2022/10/25 00:05:28;;;;;;;8.30;1.50;;;;;;;11.81;100.00;100395.97;5017145;28;20102;-74
2022/10/25 00:07:54;;;;;;;11.65;2.05;;;;;;;11.82;100.00;100400.38;5016721;28;20034;-74
2022/10/25 00:10:19;;;;;;;6.78;1.40;;;;;;;11.81;100.00;100393.19;4987342;28;20029;-74
2022/10/25 00:12:45;;;;;;;10.45;1.67;;;;;;;11.84;100.00;100397.31;4993733;28;20033;-74
2022/10/25 00:15:13;;;;;;;12.68;1.73;;;;;;;11.85;100.00;100387.81;4996686;28;20034;-74
2022/10/25 00:17:40;;;;;;;12.40;2.03;;;;;;;11.88;100.00;100392.81;5023432;28;20171;-74
2022/10/25 00:20:05;;;;;;;11.20;2.03;;;;;;;11.88;100.00;100389.19;5024904;28;20042;-73
2022/10/25 00:22:31;;;;;;;12.93;2.88;;;;;;;11.87;100.00;100385.59;5007660;28;20104;-74
2022/10/25 00:24:56;;;;;;;8.27;2.00;;;;;;;11.86;100.00;100392.28;5030720;28;20040;-74
2022/10/25 00:27:22;;;;;;;16.70;2.30;;;;;;;11.89;100.00;100385.28;5022693;28;20025;-73
2022/10/25 00:37:15;;;;;;;15.55;2.42;;;;;;;11.93;100.00;100380.75;5049297;28;20033;-74
2022/10/25 00:40:19;;;;;;;13.25;2.40;;;;;;;11.95;100.00;100386.81;5018678;28;20042;-74
2022/10/25 00:43:26;;;;;;;13.05;2.42;;;;;;;11.98;100.00;100383.41;5049302;28;20025;-74
2022/10/25 00:45:51;;;;;;;10.85;1.95;;;;;;;11.97;100.00;100382.59;5050456;28;20028;-74
2022/10/25 00:48:17;;;;;;;11.77;1.95;;;;;;;11.98;100.00;100386.22;4983410;28;20025;-74
2022/10/25 00:50:47;;;;;;;11.63;1.90;;;;;;;11.98;100.00;100381.50;5021723;28;20090;-74
2022/10/25 00:53:16;;;;;;;11.50;2.13;;;;;;;12.02;100.00;100376.13;5025995;28;20116;-74
2022/10/25 00:55:44;;;;;;;10.85;1.95;;;;;;;12.02;100.00;100378.91;5006061;28;20417;-74
2022/10/25 00:58:12;;;;;;;12.02;2.47;;;;;;;12.04;100.00;100376.66;5024886;28;20507;-74
2022/10/25 01:00:38;;;;;;;13.23;2.10;;;;;;;12.07;100.00;100389.94;5007063;28;20053;-74
2022/10/25 01:03:03;;;;;;;12.93;1.85;;;;;;;12.07;100.00;100379.63;5038854;28;20025;-73
2022/10/25 01:05:29;;;;;;;14.52;1.90;;;;;;;12.10;100.00;100386.56;5022375;28;20086;-74
2022/10/25 01:07:54;;;;;;;10.57;1.92;;;;;;;12.13;100.00;100387.91;5035875;28;20648;-74
2022/10/25 01:10:20;;;;;;;12.95;1.80;;;;;;;12.14;100.00;100383.97;5031926;28;20059;-74
2022/10/25 01:12:45;;;;;;;10.55;1.95;;;;;;;12.17;100.00;100389.75;4978999;28;20029;-74
2022/10/25 01:15:11;;;;;;;12.60;2.03;;;;;;;12.18;100.00;100374.72;4992924;28;20030;-74
2022/10/25 01:17:46;;;;;;;10.40;1.80;;;;;;;12.21;100.00;100379.66;5041746;28;20389;-74
2022/10/25 01:20:50;;;;;;;13.75;2.40;;;;;;;12.25;100.00;100375.09;5020543;28;20029;-74
2022/10/25 01:23:23;;;;;;;;;;;;;;;12.29;100.00;100376.16;5034811;28;20558;-74
2022/10/25 01:26:10;;;;;;;12.40;2.25;;;;;;;12.32;100.00;100371.13;5003124;28;19992;-74
2022/10/25 01:29:00;;;;;;;9.43;1.90;;;;;;;12.35;100.00;100367.69;5033378;28;20036;-73
2022/10/25 01:31:40;;;;;;;12.98;2.40;;;;;;;12.37;100.00;100365.41;5048531;28;20393;-74
2022/10/25 01:34:44;;;;;;;11.75;2.00;;;;;;;12.39;100.00;100363.16;5015690;28;20034;-74
2022/10/25 01:37:30;;;;;;;15.50;2.05;;;;;;;12.42;100.00;100376.44;5023019;28;20030;-73
2022/10/25 01:39:58;;;;;;;23.30;3.58;;;;;;;12.44;100.00;100371.41;4996893;28;20129;-74
2022/10/25 01:42:45;;;;;;;11.80;2.15;;;;;;;12.45;100.00;100364.69;5026789;28;20033;-74
2022/10/25 01:45:30;;;;;;;14.35;2.50;;;;;;;12.48;100.00;100364.06;5022009;28;20034;-74
2022/10/25 01:48:06;;;;;;;17.77;3.38;;;;;;;12.49;100.00;100360.16;5016221;28;20115;-74
2022/10/25 01:50:33;;;;;;;11.10;2.42;;;;;;;12.50;100.00;100365.41;5008533;28;20042;-74
2022/10/25 01:52:59;;;;;;;21.67;3.30;;;;;;;12.51;100.00;100363.47;5005600;28;20083;-74
2022/10/25 01:55:45;;;;;;;20.75;2.75;;;;;;;12.52;100.00;100351.19;5004435;28;20033;-74
2022/10/25 01:58:48;;;;;;;18.90;3.30;;;;;;;12.54;100.00;100360.06;5025497;28;20029;-74
2022/10/25 02:01:43;;;;;;;10.27;2.25;;;;;;;12.55;100.00;100358.09;5028456;28;20418;-74
2022/10/25 02:04:40;;;;;;;15.07;2.60;;;;;;;12.56;100.00;100356.94;5019271;28;20041;-74
2022/10/25 02:07:09;;;;;;;9.18;2.40;;;;;;;12.58;100.00;100354.69;5039555;28;20041;-74
2022/10/25 02:09:50;;;;;;;13.65;2.55;;;;;;;12.58;100.00;100360.25;5016783;28;20069;-74
2022/10/25 02:12:23;;;;;;;13.00;2.55;;;;;;;12.56;100.00;100352.19;5029289;28;20045;-74
2022/10/25 02:15:08;;;;;;;15.02;3.20;;;;;;;12.60;100.00;100344.06;5011804;28;20045;-74
2022/10/25 02:17:33;;;;;;;15.77;3.10;;;;;;;12.60;100.00;100344.88;4998662;28;20029;-74
2022/10/25 02:19:59;;;;;;;8.73;2.10;;;;;;;12.60;100.00;100349.63;4985356;28;20552;-74
2022/10/25 02:22:26;;;;;;;11.88;2.55;;;;;;;12.62;100.00;100344.56;4991446;28;20025;-75
2022/10/25 02:24:51;;;;;;;9.50;2.15;;;;;;;12.59;100.00;100343.25;5025032;28;20131;-74
2022/10/25 02:27:17;;;;;;;16.58;2.88;;;;;;;12.62;100.00;100338.97;5004289;28;20021;-74
2022/10/25 02:29:43;;;;;;;11.55;2.35;;;;;;;12.61;100.00;100340.94;4990340;28;20630;-74
2022/10/25 02:32:08;;;;;;;9.65;2.22;;;;;;;12.62;100.00;100342.63;4998236;28;20083;-74
2022/10/25 02:34:34;;;;;;;11.52;3.13;;;;;;;12.62;100.00;100344.56;5030922;28;20086;-74
2022/10/25 02:36:59;;;;;;;6.78;2.13;;;;;;;12.63;100.00;100335.91;5024120;28;20032;-74
2022/10/25 02:39:25;;;;;;;9.25;2.70;;;;;;;12.64;100.00;100339.50;5041033;28;20033;-74
2022/10/25 02:41:51;;;;;;;7.88;2.50;;;;;;;12.66;100.00;100335.28;4998098;28;20061;-74
2022/10/25 02:44:16;;;;;;;6.93;1.95;;;;;;;12.64;100.00;100337.53;4998321;28;20037;-74
2022/10/25 02:46:41;;;;;;;7.80;2.38;;;;;;;12.66;100.00;100340.84;5016110;28;20018;-74
2022/10/25 02:49:07;;;;;;;6.57;1.92;;;;;;;12.68;100.00;100334.97;5010399;28;20394;-74
2022/10/25 02:51:32;;;;;;;7.32;2.63;;;;;;;12.68;100.00;100337.75;5008068;28;20032;-74
2022/10/25 02:53:58;;;;;;;7.45;2.40;;;;;;;12.70;100.00;100329.88;5011915;28;20108;-74
2022/10/25 02:56:23;;;;;;;5.22;1.73;;;;;;;12.67;100.00;100338.88;5015781;28;20045;-74
2022/10/25 02:58:50;;;;;;;7.65;2.72;;;;;;;12.68;100.00;100332.19;5018384;28;20069;-74
2022/10/25 03:01:16;;;;;;;6.93;2.63;;;;;;;12.68;100.00;100332.19;5018030;28;20034;-74
2022/10/25 03:03:42;;;;;;;8.60;2.17;;;;;;;12.66;100.00;100329.69;5002881;28;20033;-74
2022/10/25 03:06:08;;;;;;;6.25;1.88;;;;;;;12.66;100.00;100326.91;5001936;28;20081;-74
2022/10/25 03:08:33;;;;;;;4.22;1.73;;;;;;;12.68;100.00;100329.41;5037748;28;20570;-74
2022/10/25 03:10:59;;;;;;;6.45;2.30;;;;;;;12.65;100.00;100328.06;5032595;28;20041;-74
2022/10/25 03:13:24;;;;;;;5.28;1.90;;;;;;;12.69;100.00;100329.06;4984020;28;20022;-74
2022/10/25 03:15:50;;;;;;;8.55;2.83;;;;;;;12.70;100.00;100330.75;5000314;28;20030;-74
2022/10/25 03:18:15;;;;;;;6.50;2.15;;;;;;;12.68;100.00;100323.81;5009946;28;20468;-74
2022/10/25 03:20:41;;;;;;;5.90;2.55;;;;;;;12.70;100.00;100327.09;5016806;28;20038;-74
2022/10/25 03:23:07;;;;;;;9.65;2.70;;;;;;;12.67;100.00;100328.56;5042550;28;20037;-74
2022/10/25 03:25:32;;;;;;;7.28;2.67;;;;;;;12.69;100.00;100322.69;5024309;28;20025;-74
2022/10/25 03:28:00;;;;;;;9.15;2.35;;;;;;;12.71;100.00;100326.81;5023999;28;20542;-74
2022/10/25 03:30:27;;;;;;;5.00;1.70;;;;;;;12.71;100.00;100321.22;5001745;28;20033;-74
2022/10/25 03:32:52;;;;;;;4.85;2.33;;;;;;;12.72;100.00;100328.44;5030324;28;20025;-74
2022/10/25 03:35:18;;;;;;;8.48;2.65;;;;;;;12.75;100.00;100327.00;5000817;28;20034;-74
2022/10/25 03:37:43;;;;;;;5.93;2.30;;;;;;;12.73;100.00;100332.03;5017266;28;20037;-74
2022/10/25 03:40:09;;;;;;;9.43;2.33;;;;;;;12.74;100.00;100323.38;5016674;28;20045;-74
2022/10/25 03:42:35;;;;;;;6.78;2.80;;;;;;;12.75;100.00;100327.81;5030166;28;20035;-73
2022/10/25 03:45:00;;;;;;;8.38;2.53;;;;;;;12.77;100.00;100332.28;5011039;28;20034;-74
2022/10/25 03:47:26;;;;;;;11.32;3.17;;;;;;;12.76;100.00;100331.44;5010235;28;20033;-74
2022/10/25 03:49:51;;;;;;;7.82;2.38;;;;;;;12.78;100.00;100333.91;4987748;28;20111;-74
2022/10/25 03:52:16;;;;;;;9.25;2.55;;;;;;;12.79;100.00;100335.53;5031227;28;20397;-74
2022/10/25 03:54:42;;;;;;;8.65;2.85;;;;;;;12.73;100.00;100340.41;4987049;28;20060;-74
2022/10/25 03:57:07;;;;;;;9.88;3.03;;;;;;;12.75;100.00;100338.97;4998478;28;20037;-74
2022/10/25 03:59:33;;;;;;;11.15;3.20;;;;;;;12.79;100.00;100327.19;5029488;28;20579;-74
2022/10/25 04:01:59;;;;;;;8.98;3.25;;;;;;;12.79;100.00;100333.59;5000471;28;20086;-74
2022/10/25 04:04:25;;;;;;;7.65;2.80;;;;;;;12.81;100.00;100333.28;5001291;28;20030;-74
2022/10/25 04:06:50;;;;;;;7.25;2.78;;;;;;;12.80;100.00;100337.22;5000521;28;20046;-73
2022/10/25 04:09:16;;;;;;;8.70;3.22;;;;;;;12.82;100.00;100332.16;5011492;28;20103;-74
2022/10/25 04:11:41;;;;;;;6.65;2.83;;;;;;;12.80;100.00;100328.84;5000221;28;20036;-74
2022/10/25 04:14:06;;;;;;;8.40;2.60;;;;;;;12.79;100.00;100338.34;4989361;28;20040;-74
2022/10/25 04:16:32;;;;;;;6.28;2.33;;;;;;;12.79;100.00;100328.03;5000459;28;20037;-73
2022/10/25 04:18:58;;;;;;;10.13;2.60;;;;;;;12.81;100.00;100334.09;5022591;28;20437;-74
2022/10/25 04:21:23;;;;;;;12.82;3.00;;;;;;;12.80;100.00;100329.66;4985032;28;20029;-74
2022/10/25 04:23:49;;;;;;;5.00;2.03;;;;;;;12.83;100.00;100328.22;5022114;28;20120;-74
2022/10/25 04:26:16;;;;;;;5.90;2.30;;;;;;;12.84;100.00;100321.50;5008679;28;20033;-74
2022/10/25 04:28:52;;;;;;;5.93;2.70;;;;;;;12.82;100.00;100318.22;5017135;28;20022;-74
2022/10/25 04:31:18;;;;;;;5.07;2.05;;;;;;;12.85;100.00;100321.19;5014583;28;20052;-74
2022/10/25 04:33:47;;;;;;;7.57;2.17;;;;;;;12.84;100.00;100332.66;5039462;28;20029;-74
2022/10/25 04:36:13;;;;;;;5.90;2.60;;;;;;;12.85;100.00;100329.56;5006906;28;20352;-74
2022/10/25 04:38:38;;;;;;;10.02;2.50;;;;;;;12.83;100.00;100326.25;5026618;28;20048;-74
2022/10/25 04:41:04;;;;;;;7.03;2.78;;;;;;;12.82;100.00;100326.59;5022752;28;20026;-74
2022/10/25 04:43:29;;;;;;;5.20;2.13;;;;;;;12.82;100.00;100332.97;5010471;28;20533;-74
2022/10/25 04:45:54;;;;;;;8.38;2.42;;;;;;;12.84;100.00;100335.44;5006818;28;20117;-74
2022/10/25 04:48:20;;;;;;;6.65;2.65;;;;;;;12.83;100.00;100333.78;5016444;28;20025;-74
2022/10/25 04:50:46;;;;;;;5.97;2.47;;;;;;;12.83;100.00;100328.22;5011228;28;20030;-74
2022/10/25 04:53:11;;;;;;;5.57;2.25;;;;;;;12.83;100.00;100333.78;5000061;28;20029;-74
2022/10/25 04:55:37;;;;;;;4.00;2.22;;;;;;;12.81;100.00;100333.28;5031567;28;20037;-73
2022/10/25 04:58:02;;;;;;;5.45;2.05;;;;;;;12.80;100.00;100335.25;5016960;28;20490;-74
2022/10/25 05:00:28;;;;;;;7.45;3.05;;;;;;;12.80;100.00;100334.44;5031130;28;20120;-74
2022/10/25 05:02:53;;;;;;;5.88;2.60;;;;;;;12.82;100.00;100337.72;5001116;28;20030;-73
2022/10/25 05:05:19;;;;;;;5.50;2.08;;;;;;;12.80;100.00;100331.63;5016074;28;20056;-73
2022/10/25 05:07:45;;;;;;;5.82;2.00;;;;;;;12.80;100.00;100331.63;5003092;28;20083;-74
2022/10/25 05:10:10;;;;;;;4.13;2.15;;;;;;;12.79;100.00;100321.63;4998971;28;20038;-74
2022/10/25 05:12:36;;;;;;;6.03;2.58;;;;;;;12.78;100.00;100325.53;5024142;28;20030;-74
2022/10/25 05:15:02;;;;;;;4.40;2.38;;;;;;;12.78;100.00;100323.56;4999567;28;20036;-74
2022/10/25 05:17:28;;;;;;;6.35;3.40;;;;;;;12.78;100.00;100331.94;5006384;28;20029;-74
2022/10/25 05:19:53;;;;;;;5.80;2.38;;;;;;;12.80;100.00;100326.06;4994046;28;20029;-73
2022/10/25 05:22:18;;;;;;;9.38;3.33;;;;;;;12.82;100.00;100332.16;5007948;28;20596;-74
2022/10/25 05:24:44;;;;;;;6.50;2.40;;;;;;;12.77;100.00;100330.31;4990199;28;20080;-73
2022/10/25 05:27:09;;;;;;;7.65;2.72;;;;;;;12.78;100.00;100336.69;5023294;28;20056;-74
2022/10/25 05:29:35;;;;;;;12.18;3.53;;;;;;;12.75;100.00;100336.19;5021628;28;20040;-73
2022/10/25 05:32:01;;;;;;;8.07;3.03;;;;;;;12.74;100.00;100330.94;5040425;28;20040;-74
2022/10/25 05:34:27;;;;;;;7.22;2.40;;;;;;;12.73;100.00;100334.84;4999246;28;20034;-74
2022/10/25 05:36:52;;;;;;;5.32;2.50;;;;;;;12.73;100.00;100330.09;5039954;28;20025;-74
2022/10/25 05:39:18;;;;;;;5.03;2.22;;;;;;;12.74;100.00;100336.50;4989994;28;20034;-74
2022/10/25 05:41:43;;;;;;;5.13;2.22;;;;;;;12.73;100.00;100332.91;5024128;28;20078;-74
2022/10/25 05:44:09;;;;;;;5.22;2.38;;;;;;;12.73;100.00;100324.53;5006644;28;20025;-74
2022/10/25 05:46:34;;;;;;;6.05;2.88;;;;;;;12.72;100.00;100320.09;4998492;28;20038;-74
2022/10/25 05:49:00;;;;;;;6.53;2.55;;;;;;;12.72;100.00;100322.88;5001012;28;20028;-74
2022/10/25 05:51:30;;;;;;;5.07;2.83;;;;;;;12.71;100.00;100320.41;5018768;28;20032;-74
2022/10/25 05:53:56;;;;;;;5.22;2.47;;;;;;;12.70;100.00;100319.59;5023070;28;20608;-74
2022/10/25 05:56:23;;;;;;;4.32;2.70;;;;;;;12.74;100.00;100326.19;4996298;28;20042;-74
2022/10/25 05:58:48;;;;;;;6.50;2.70;;;;;;;12.77;100.00;100324.72;5013292;28;20428;-74
2022/10/25 06:01:20;;;;;;;5.50;2.30;;;;;;;12.73;100.00;100324.53;4988070;28;20029;-74
2022/10/25 06:03:49;;;;;;;5.10;2.63;;;;;;;12.73;100.00;100316.19;5017230;28;20567;-74
2022/10/25 06:06:15;;;;;;;4.90;2.45;;;;;;;12.73;100.00;100324.53;4991547;28;20033;-73
2022/10/25 06:08:41;;;;;;;6.30;2.50;;;;;;;12.73;100.00;100324.53;5005338;28;20056;-73
2022/10/25 06:11:08;;;;;;;5.65;2.67;;;;;;;12.75;100.00;100316.66;5027500;28;20391;-74
2022/10/25 06:13:33;;;;;;;4.35;2.63;;;;;;;12.73;100.00;100318.13;4995370;28;20482;-74
2022/10/25 06:16:05;;;;;;;5.00;2.75;;;;;;;12.74;100.00;100319.78;4998817;28;20041;-74
2022/10/25 06:18:31;;;;;;;4.40;2.60;;;;;;;12.73;100.00;100316.19;5013365;28;20104;-74
2022/10/25 06:21:02;;;;;;;5.43;2.78;;;;;;;12.74;100.00;100317.81;5002010;28;20034;-74
2022/10/25 06:23:30;;;;;;;4.30;2.85;;;;;;;12.77;100.00;100316.38;5016592;28;20034;-74
2022/10/25 06:26:00;;;;;;;4.40;2.28;;;;;;;12.75;100.00;100304.69;4998572;28;20087;-74
2022/10/25 06:28:25;;;;;;;4.25;2.58;;;;;;;12.75;100.00;100308.31;5013083;28;20040;-74
2022/10/25 06:30:51;;;;;;;6.50;2.40;;;;;;;12.77;100.00;100309.97;5027465;28;20033;-74
2022/10/25 06:33:16;;;;;;;8.10;3.38;;;;;;;12.77;100.00;100309.97;5008037;28;20064;-74
2022/10/25 06:35:42;;;;;;;4.93;2.50;;;;;;;12.76;100.00;100300.78;5009177;28;20029;-74
2022/10/25 06:38:07;;;;;;;5.03;2.67;;;;;;;12.78;100.00;100306.84;5016680;28;20072;-73
2022/10/25 06:40:34;;;;;;;4.13;2.47;;;;;;;12.79;100.00;100313.25;4993705;28;20055;-74
2022/10/25 06:42:59;;;;;;;4.70;2.13;;;;;;;12.80;100.00;100317.72;4988546;28;20036;-73
2022/10/25 06:45:25;;;;;;;5.90;2.97;;;;;;;12.78;100.00;100314.41;5010453;28;20025;-74
2022/10/25 06:47:50;;;;;;;4.43;2.78;;;;;;;12.79;100.00;100318.81;5006371;28;20076;-74
2022/10/25 06:50:16;;;;;;;5.97;2.85;;;;;;;12.81;100.00;100313.78;5011122;28;20060;-74
2022/10/25 06:52:41;;;;;;;6.38;3.58;;;;;;;12.81;100.00;100313.78;5031123;28;20060;-74
2022/10/25 06:55:07;;;;;;;4.65;3.03;;;;;;;12.81;100.00;100316.56;4997288;28;20026;-74
2022/10/25 06:57:32;;;;;;;9.38;4.15;;;;;;;12.81;100.00;100322.94;5007023;28;20060;-74
2022/10/25 06:59:59;;;;;;;7.25;3.13;;;;;;;12.83;100.00;100328.22;4997986;28;20033;-74
2022/10/25 07:02:25;;;;;;;5.20;2.97;;;;;;;12.81;100.00;100324.91;5017101;28;20044;-74
2022/10/25 07:04:51;;;;;;;7.75;3.08;;;;;;;12.82;100.00;100326.59;5014145;28;20546;-74
2022/10/25 07:07:16;;;;;;;7.97;3.00;;;;;;;12.82;100.00;100323.78;5027927;28;20071;-74
2022/10/25 07:09:41;;;;;;;5.22;3.08;;;;;;;12.84;100.00;100329.84;5043109;28;20045;-73
2022/10/25 07:12:07;;;;;;;6.70;3.05;;;;;;;12.84;100.00;100336.28;5013060;28;20522;-74
2022/10/25 07:14:32;;;;;;;7.38;4.20;;;;;;;12.88;100.00;100339.25;4989941;28;20021;-74
2022/10/25 07:16:58;;;;;;;4.75;3.00;;;;;;;12.87;100.00;100335.66;4998384;28;20022;-74
2022/10/25 07:19:25;;;;;;;5.93;2.88;;;;;;;12.90;100.00;100340.59;5000800;28;20469;-74
2022/10/25 07:21:50;;;;;;;10.57;4.03;;;;;;;12.91;100.00;100347.00;4999206;28;20060;-74
2022/10/25 07:24:16;;;;;;;9.40;4.70;;;;;;;12.93;100.00;100341.94;5024730;28;20033;-74
2022/10/25 07:26:42;;;;;;;9.95;4.63;;;;;;;12.93;100.00;100339.97;4998828;28;20036;-74
2022/10/25 07:29:07;;;;;;;7.47;3.90;;;;;;;12.97;100.00;100337.38;5031951;28;20029;-74
2022/10/25 07:31:39;;;;;;;13.70;5.10;;;;;;;12.99;100.00;100339.84;5013961;28;20056;-74
2022/10/25 07:34:05;;;;;;;8.63;4.72;;;;;;;13.02;100.00;100348.41;5030938;28;20021;-74
2022/10/25 07:36:31;;;;;;;9.77;4.40;;;;;;;13.03;100.00;100347.25;5007678;28;20526;-74
2022/10/25 07:38:56;;;;;;;12.90;4.85;;;;;;;13.05;100.00;100353.34;5006882;28;20030;-74
2022/10/25 07:41:22;;;;;;;12.90;5.47;;;;;;;13.08;100.00;100357.47;4999386;28;20026;-74
2022/10/25 07:43:48;;;;;;;10.02;5.28;;;;;;;13.11;100.00;100362.41;5030364;28;20385;-74
2022/10/25 07:46:13;;;;;;;13.80;5.13;;;;;;;13.13;100.00;100354.56;5012048;28;20127;-74
2022/10/25 07:48:39;;;;;;;13.27;5.65;;;;;;;13.14;100.00;100347.84;5020522;28;20018;-74
2022/10/25 07:51:10;;;;;;;11.98;5.57;;;;;;;13.16;100.00;100349.19;5017578;28;20032;-74
2022/10/25 07:53:35;;;;;;;10.20;4.90;;;;;;;13.18;100.00;100335.75;4986237;28;20029;-74
2022/10/25 07:56:01;;;;;;;10.18;5.07;;;;;;;13.21;100.00;100337.09;5014272;28;20033;-74
2022/10/25 07:58:26;;;;;;;11.68;5.28;;;;;;;13.24;100.00;100342.03;5012196;28;20057;-74
2022/10/25 08:00:52;;;;;;;11.73;4.95;;;;;;;13.28;100.00;100345.03;5023797;28;20529;-74
2022/10/25 08:03:17;;;;;;;12.40;5.10;;;;;;;13.27;100.00;100338.63;5035144;28;20546;-74
2022/10/25 08:05:44;;;;;;;11.77;4.72;;;;;;;13.30;100.00;100342.75;5033750;28;20033;-74
2022/10/25 08:08:09;;;;;;;11.63;4.93;;;;;;;13.33;100.00;100337.38;5000599;28;20060;-74
2022/10/25 08:10:35;;;;;;;12.40;4.30;;;;;;;13.34;100.00;100336.22;5017688;28;20033;-74
2022/10/25 08:13:00;;;;;;;11.10;4.40;;;;;;;13.36;100.00;100341.50;5023595;28;20038;-74
2022/10/25 08:15:26;;;;;;;9.77;4.65;;;;;;;13.39;100.00;100347.25;4989650;28;20061;-73
2022/10/25 08:17:58;;;;;;;9.88;4.53;;;;;;;13.40;100.00;100343.34;5011508;28;20029;-74
2022/10/25 08:20:24;;;;;;;9.25;4.45;;;;;;;13.43;100.00;100341.88;5016406;28;20029;-74
2022/10/25 08:22:49;;;;;;;9.15;4.32;;;;;;;13.46;100.00;100346.00;5029558;28;20087;-73
2022/10/25 08:25:15;;;;;;;11.68;5.03;;;;;;;13.50;100.00;100330.25;5026416;28;20047;-74
2022/10/25 08:27:41;;;;;;;11.18;4.68;;;;;;;13.52;100.00;100345.53;4997885;28;20036;-73
2022/10/25 08:30:07;;;;;;;8.25;4.40;;;;;;;13.58;100.00;100337.88;4998695;28;20056;-73
2022/10/25 08:32:35;;;;;;;11.48;4.50;;;;;;;13.60;100.00;100336.41;5013129;28;20029;-74
2022/10/25 08:35:01;;;;;;;9.77;4.20;;;;;;;13.65;100.00;100338.25;5026897;28;20082;-73
2022/10/25 08:37:26;;;;;;;13.43;4.32;;;;;;;13.68;100.00;100329.25;5026435;28;20030;-74
2022/10/25 08:39:52;;;;;;;11.50;4.35;;;;;;;13.73;100.00;100325.47;5016144;28;20037;-73
2022/10/25 08:42:55;;;;;;;10.52;4.13;;;;;;;13.76;100.00;100324.81;4986846;28;20033;-73
2022/10/25 08:45:42;;;;;;;18.33;5.10;;;;;;;13.79;100.00;100321.41;5024097;28;20371;-73
2022/10/25 08:48:14;;;;;;;10.40;4.68;;;;;;;13.83;100.00;100317.66;5021640;28;20026;-73
2022/10/25 08:50:43;;;;;;;10.40;4.47;;;;;;;13.87;100.00;100312.25;5010576;28;20030;-73
2022/10/25 08:53:31;;;;;;;10.60;4.68;;;;;;;13.95;100.00;100319.03;5000079;28;20100;-73
2022/10/25 08:55:57;;;;;;;10.00;4.72;;;;;;;13.98;100.00;100310.81;5000700;28;20045;-74
2022/10/25 08:58:34;;;;;;;8.43;4.35;;;;;;;14.04;100.00;100311.50;5026778;28;20029;-74
2022/10/25 09:01:01;;;;;;;10.65;4.45;;;;;;;14.07;100.00;100317.28;5008154;28;20037;-74
2022/10/25 09:03:27;;;;;;;14.90;5.00;;;;;;;14.12;100.00;100307.09;5000872;28;20083;-74
2022/10/25 09:06:10;;;;;;;9.25;4.15;;;;;;;14.16;100.00;100308.94;4999625;28;20026;-74
2022/10/25 09:08:48;;;;;;;14.95;4.50;;;;;;;14.20;100.00;100309.91;5035509;28;20049;-74
2022/10/25 09:11:36;;;;;;;10.65;4.43;;;;;;;14.24;100.00;100308.16;5018715;28;20052;-74
2022/10/25 09:14:15;;;;;;;9.68;4.22;;;;;;;14.29;100.00;100304.34;4990326;28;20045;-74
2022/10/25 09:16:43;;;;;;;12.82;4.45;;;;;;;14.36;100.00;100310.31;5016514;28;20079;-73
2022/10/25 09:19:15;;;;;;;9.52;4.47;;;;;;;14.40;100.00;100300.16;5017532;28;20057;-74
2022/10/25 09:21:53;;;;;;;9.10;4.32;;;;;;;14.48;100.00;100298.50;5035824;28;20116;-74
2022/10/25 09:24:25;;;;;;;6.53;4.22;;;;;;;14.55;100.00;100292.47;4999385;28;20065;-74
2022/10/25 09:27:05;;;;;;;12.20;4.43;;;;;;;14.62;100.00;100282.44;4997830;28;20030;-74
2022/10/25 09:29:36;;;;;;;9.55;4.32;;;;;;;14.70;100.00;100286.41;5013552;28;20061;-74
2022/10/25 09:32:03;;;;;;;10.65;4.30;;;;;;;14.77;100.00;100269.97;4999264;28;20026;-74
2022/10/25 09:34:31;;;;;;;12.13;4.32;;;;;;;14.82;100.00;100272.63;5007563;28;20121;-74
2022/10/25 09:37:15;;;;;;;8.60;3.88;;;;;;;14.91;100.00;100270.63;5024732;28;20041;-74
2022/10/25 09:39:44;;;;;;;9.45;3.50;;;;;;;14.98;100.00;100262.56;4987929;28;20052;-74
2022/10/25 09:42:21;;;;;;;6.93;3.13;;;;;;;15.11;100.00;100263.53;5025820;28;20541;-74
2022/10/25 09:44:49;;;;;;;7.30;3.15;;;;;;;15.22;100.00;100266.00;4997196;28;20030;-74
2022/10/25 09:47:20;;;;;;;8.35;2.85;;;;;;;15.32;100.00;100263.69;4982696;28;20022;-74
2022/10/25 09:49:54;;;;;;;6.95;2.63;;;;;;;15.40;100.00;100260.03;5021369;28;20028;-74
2022/10/25 09:52:45;;;;;;;8.73;3.30;;;;;;;15.49;100.00;100261.97;5047297;28;20434;-74
2022/10/25 09:55:10;;;;;;;7.63;2.55;;;;;;;15.58;100.00;100268.41;5025586;28;20448;-74
2022/10/25 09:57:35;;;;;;;5.80;2.80;;;;;;;15.65;100.00;100271.50;5035195;28;20041;-74
2022/10/25 10:00:01;;;;;;;8.68;2.80;;;;;;;15.75;100.00;100262.78;5030254;28;20033;-74
2022/10/25 10:02:26;;;;;;;5.88;2.50;;;;;;;15.84;100.00;100259.94;5014128;28;20025;-74
2022/10/25 10:04:52;;;;;;;7.05;2.20;;;;;;;15.93;100.00;100257.09;4993791;28;20025;-75
2022/10/25 10:07:19;;;;;;;7.35;2.60;;;;;;;16.01;100.00;100247.84;5010702;28;20512;-74
2022/10/25 10:09:45;;;;;;;7.10;2.65;;;;;;;16.09;100.00;100246.97;5042219;28;20385;-75
2022/10/25 10:12:23;;;;;;;8.32;2.88;;;;;;;16.19;100.00;100243.78;5004038;28;20029;-74
2022/10/25 10:14:56;;;;;;;11.70;2.92;;;;;;;16.26;100.00;100232.84;4998342;28;20030;-74
2022/10/25 10:17:21;;;;;;;7.63;2.78;;;;;;;16.33;100.00;100225.91;5019214;28;20110;-74
2022/10/25 10:20:12;;;;;;;6.72;2.30;;;;;;;16.41;100.00;100223.06;5026655;28;20030;-74
2022/10/25 10:22:46;;;;;;;8.30;2.63;;;;;;;16.51;100.00;100221.81;4999020;28;20120;-74
2022/10/25 10:25:16;;;;;;;9.57;2.60;;;;;;;16.60;100.00;100224.53;5013034;28;20025;-74
2022/10/25 10:27:42;;;;;;;8.57;2.50;;;;;;;16.69;100.00;100223.34;5001099;28;20032;-74
2022/10/25 10:30:08;;;;;;;5.90;2.40;;;;;;;16.77;100.00;100223.63;5010640;28;20026;-74
2022/10/25 10:32:37;;;;;;;6.60;2.00;;;;;;;16.83;100.00;100214.66;5012294;28;20033;-74
2022/10/25 10:35:05;;;;;;;9.90;2.45;;;;;;;16.88;100.00;100219.22;5014686;28;20043;-74
2022/10/25 10:37:31;;;;;;;6.32;2.20;;;;;;;16.97;100.00;100217.19;5004224;28;20129;-74
2022/10/25 10:39:58;;;;;;;5.18;2.15;;;;;;;17.00;100.00;100210.88;4999694;28;20698;-74
2022/10/25 10:42:35;;;;;;;4.95;2.22;;;;;;;17.06;100.00;100209.50;4985962;28;20029;-74
2022/10/25 10:45:06;;;;;;;7.80;2.03;;;;;;;17.11;100.00;100212.09;4998453;28;20072;-75
2022/10/25 10:47:36;;;;;;;6.18;2.28;;;;;;;17.14;100.00;100211.41;5030516;28;20022;-75
2022/10/25 10:50:12;;;;;;;7.85;2.38;;;;;;;17.19;100.00;100208.38;5014676;28;20041;-74
2022/10/25 10:52:39;;;;;;;5.55;2.30;;;;;;;17.22;100.00;100203.22;4996694;28;20048;-75
2022/10/25 10:55:14;;;;;;;6.38;1.98;;;;;;;17.26;100.00;100195.75;5029765;28;20164;-74
2022/10/25 10:57:39;;;;;;;8.90;2.15;;;;;;;17.29;100.00;100195.06;5029560;28;20033;-74
2022/10/25 11:00:05;;;;;;;6.95;1.80;;;;;;;17.32;100.00;100183.16;5009035;28;20025;-74
2022/10/25 11:02:33;;;;;;;4.70;1.50;;;;;;;17.36;100.00;100186.91;5003852;28;20042;-74
2022/10/25 11:04:59;;;;;;;6.68;1.85;;;;;;;17.38;100.00;100176.13;5042237;28;20649;-74
2022/10/25 11:07:26;;;;;;;5.80;2.00;;;;;;;17.38;100.00;100179.78;5021991;28;20046;-74
2022/10/25 11:09:51;;;;;;;4.07;1.70;;;;;;;17.41;100.00;100175.44;5029746;28;20492;-74
2022/10/25 11:12:17;;;;;;;4.25;1.70;;;;;;;17.40;100.00;100166.19;5014844;28;20042;-74
2022/10/25 11:14:43;;;;;;;5.30;1.60;;;;;;;17.46;100.00;100161.19;4991045;28;20061;-74
2022/10/25 11:17:21;;;;;;;5.40;1.48;;;;;;;17.50;100.00;100150.91;5022975;28;20429;-74
2022/10/25 11:20:20;;;;;;;5.70;1.58;;;;;;;17.54;100.00;100145.41;5014599;28;20109;-74
2022/10/25 11:23:01;;;;;;;5.15;1.45;;;;;;;17.57;100.00;100139.91;5026355;28;20087;-74
2022/10/25 11:25:35;;;;;;;6.03;1.55;;;;;;;17.61;100.00;100140.03;5050602;28;20044;-74
2022/10/25 11:28:19;;;;;;;6.13;1.58;;;;;;;17.61;100.00;100132.44;5049151;28;20112;-74
2022/10/25 11:31:05;;;;;;;3.30;1.30;;;;;;;17.62;100.00;100131.25;5026503;28;20037;-74